Time;durP1;ratioP1;P1;durP2;ratioP2;P2;SDS_P1;SDS_P2;PMS_P1;PMS_P2;Temp;Humidity;BMP_temperature;BMP_pressure;BME280_temperature;BME280_humidity;BME280_pressure;Samples;Min_cycle;Max_cycle;Signal;HPM_P1;HPM_P2
2021/08/06 00:01:53;;;;;;;4.23;3.10;;;16.10;99.90;;;;;;6248069;28;20247;-70
2021/08/06 00:04:56;;;;;;;2.57;2.30;;;16.10;99.90;;;;;;6246542;28;20215;-70
2021/08/06 00:07:58;;;;;;;3.57;2.70;;;16.10;99.90;;;;;;6246831;28;20675;-71
2021/08/06 00:11:01;;;;;;;3.67;2.77;;;16.10;99.90;;;;;;6246836;28;20652;-70
2021/08/06 00:14:04;;;;;;;2.87;2.53;;;16.10;99.90;;;;;;6246445;28;20202;-69
2021/08/06 00:17:07;;;;;;;2.67;2.20;;;16.10;99.90;;;;;;6247554;28;20228;-71
2021/08/06 00:20:10;;;;;;;3.10;2.80;;;16.10;99.90;;;;;;6246846;28;20242;-70
2021/08/06 00:23:14;;;;;;;4.13;2.53;;;16.20;99.90;;;;;;6247060;28;20218;-70
2021/08/06 00:26:19;;;;;;;2.90;2.60;;;16.20;99.90;;;;;;6246589;28;20195;-71
2021/08/06 00:29:22;;;;;;;3.50;3.20;;;16.20;99.90;;;;;;6246183;28;20199;-70
2021/08/06 00:32:25;;;;;;;5.00;4.23;;;16.20;99.90;;;;;;6246339;28;20203;-69
2021/08/06 00:35:35;;;;;;;4.37;3.97;;;16.30;99.90;;;;;;6262733;28;20247;-69
2021/08/06 00:38:38;;;;;;;7.53;4.57;;;16.30;99.90;;;;;;6262682;28;20226;-69
2021/08/06 00:41:42;;;;;;;4.20;3.80;;;16.30;99.90;;;;;;6246019;28;20287;-69
2021/08/06 00:44:44;;;;;;;5.13;4.63;;;16.30;99.90;;;;;;6245559;28;20215;-70
2021/08/06 00:47:48;;;;;;;5.00;4.60;;;16.30;99.90;;;;;;6246224;28;20200;-69
2021/08/06 00:50:55;;;;;;;8.63;7.83;;;16.30;99.90;;;;;;6237923;28;20195;-70
2021/08/06 00:53:59;;;;;;;5.30;4.80;;;16.30;99.90;;;;;;6243980;28;20227;-69
2021/08/06 00:57:13;;;;;;;5.67;5.07;;;16.40;99.90;;;;;;6245700;28;20200;-71
2021/08/06 01:00:19;;;;;;;6.83;5.10;;;16.40;99.90;;;;;;6246827;28;20194;-70
2021/08/06 01:03:27;;;;;;;5.07;4.57;;;16.30;99.90;;;;;;6245480;28;20200;-70
2021/08/06 01:06:44;;;;;;;5.47;4.93;;;16.30;99.90;;;;;;6246698;28;20597;-70
2021/08/06 01:10:01;;;;;;;5.77;5.00;;;16.30;99.90;;;;;;6262273;28;20224;-70
2021/08/06 01:13:30;;;;;;;4.97;4.17;;;16.30;99.90;;;;;;6245560;28;20660;-69
2021/08/06 01:16:36;;;;;;;4.60;4.20;;;16.20;99.90;;;;;;6245080;28;20220;-71
2021/08/06 01:19:56;;;;;;;8.03;5.80;;;16.20;99.90;;;;;;6244939;28;20285;-69
2021/08/06 01:23:16;;;;;;;8.93;5.37;;;16.20;99.90;;;;;;6244998;28;20193;-70
2021/08/06 01:26:24;;;;;;;8.27;6.00;;;16.20;99.90;;;;;;6261265;28;20563;-69
2021/08/06 01:29:35;;;;;;;10.30;4.90;;;16.30;99.90;;;;;;6246409;28;20755;-70
2021/08/06 01:32:41;;;;;;;7.83;6.10;;;16.30;99.90;;;;;;6229162;28;20195;-68
2021/08/06 01:35:48;;;;;;;10.40;6.17;;;16.30;99.90;;;;;;6221468;28;20230;-69
2021/08/06 01:38:52;;;;;;;7.00;5.20;;;16.30;99.90;;;;;;6259134;28;20204;-70
2021/08/06 01:42:22;;;;;;;6.33;4.07;;;16.40;99.90;;;;;;6244790;28;20280;-70
2021/08/06 01:45:37;;;;;;;4.13;3.67;;;16.40;99.90;;;;;;6260924;28;20208;-70
2021/08/06 01:48:45;;;;;;;3.70;3.30;;;16.30;99.90;;;;;;6244566;28;20583;-71
2021/08/06 01:51:59;;;;;;;5.60;3.47;;;16.40;99.90;;;;;;6245813;28;20187;-71
2021/08/06 01:55:04;;;;;;;4.73;3.30;;;16.40;99.90;;;;;;6244289;28;20197;-70
2021/08/06 01:58:20;;;;;;;5.93;3.17;;;16.30;99.90;;;;;;6246087;28;20196;-71
2021/08/06 02:01:29;;;;;;;5.17;2.90;;;16.30;99.90;;;;;;6244610;28;20199;-70
2021/08/06 02:04:41;;;;;;;3.27;2.97;;;16.20;99.90;;;;;;6244189;28;20615;-70
2021/08/06 02:07:50;;;;;;;4.20;2.53;;;16.30;99.90;;;;;;6245699;28;20181;-69
2021/08/06 02:10:56;;;;;;;4.67;2.60;;;16.30;99.90;;;;;;6260684;28;20223;-71
2021/08/06 02:14:07;;;;;;;4.33;2.30;;;16.30;99.90;;;;;;6244091;28;20211;-71
2021/08/06 02:17:13;;;;;;;6.27;2.60;;;16.30;99.90;;;;;;6243950;28;20595;-71
2021/08/06 02:20:19;;;;;;;3.63;2.60;;;16.30;99.90;;;;;;6244111;28;20212;-69
2021/08/06 02:23:26;;;;;;;3.53;2.50;;;16.30;99.90;;;;;;6244621;28;20212;-69
2021/08/06 02:26:30;;;;;;;4.03;1.87;;;16.30;99.90;;;;;;6261870;28;20195;-69
2021/08/06 02:29:38;;;;;;;2.93;1.90;;;16.40;99.90;;;;;;6249312;28;20687;-70
2021/08/06 02:32:45;;;;;;;2.43;1.90;;;16.40;99.90;;;;;;6265685;28;20294;-70
2021/08/06 02:35:47;;;;;;;2.10;1.90;;;16.40;99.90;;;;;;6249023;28;20222;-71
2021/08/06 02:38:50;;;;;;;2.37;2.17;;;16.40;99.90;;;;;;6248734;28;20200;-69
2021/08/06 02:41:54;;;;;;;4.83;1.97;;;16.40;99.90;;;;;;6250111;28;20602;-70
2021/08/06 02:44:57;;;;;;;2.50;1.93;;;16.30;99.90;;;;;;6265079;28;20208;-70
2021/08/06 02:48:00;;;;;;;2.13;1.70;;;16.30;99.90;;;;;;6249890;28;20591;-70
2021/08/06 02:51:02;;;;;;;3.70;1.57;;;16.30;99.90;;;;;;6248576;28;20188;-71
2021/08/06 02:54:04;;;;;;;2.13;1.80;;;16.30;99.90;;;;;;6248499;28;20222;-71
2021/08/06 02:57:07;;;;;;;5.47;1.67;;;16.30;99.90;;;;;;6264886;28;20196;-70
2021/08/06 03:00:10;;;;;;;5.23;1.90;;;16.30;99.90;;;;;;6248527;28;20200;-69
2021/08/06 03:03:13;;;;;;;2.67;1.80;;;16.30;99.90;;;;;;6264789;28;20200;-73
2021/08/06 03:06:16;;;;;;;2.30;1.73;;;16.20;99.90;;;;;;6264792;28;20202;-71
2021/08/06 03:09:19;;;;;;;3.17;1.97;;;16.20;99.90;;;;;;6249379;28;20286;-71
2021/08/06 03:12:22;;;;;;;4.30;1.90;;;16.20;99.90;;;;;;6248399;28;20199;-69
2021/08/06 03:15:24;;;;;;;2.20;2.00;;;16.20;99.90;;;;;;6247778;28;20315;-70
2021/08/06 03:18:27;;;;;;;3.17;1.90;;;16.20;99.90;;;;;;6231629;28;20211;-70
2021/08/06 03:21:30;;;;;;;2.17;1.97;;;16.20;99.90;;;;;;6249185;28;20205;-69
2021/08/06 03:24:33;;;;;;;3.53;2.03;;;16.10;99.90;;;;;;6247208;28;20307;-70
2021/08/06 03:27:36;;;;;;;2.30;2.10;;;16.20;99.90;;;;;;6247736;28;20510;-70
2021/08/06 03:30:40;;;;;;;2.20;2.00;;;16.20;99.90;;;;;;6248935;28;20207;-72
2021/08/06 03:33:44;;;;;;;3.20;2.00;;;16.10;99.90;;;;;;6247571;28;20192;-71
2021/08/06 03:36:48;;;;;;;1.87;1.77;;;16.10;99.90;;;;;;6246694;28;20692;-70
2021/08/06 03:39:52;;;;;;;4.57;2.27;;;16.10;99.90;;;;;;6247467;28;20672;-71
2021/08/06 03:42:54;;;;;;;3.50;2.03;;;16.10;99.90;;;;;;6248680;28;20204;-70
2021/08/06 03:45:56;;;;;;;2.03;1.80;;;16.10;99.90;;;;;;6246961;28;20218;-71
2021/08/06 03:48:59;;;;;;;2.60;2.33;;;16.10;99.90;;;;;;6247076;28;20223;-70
2021/08/06 03:52:03;;;;;;;3.53;2.30;;;16.10;99.90;;;;;;6263157;28;20560;-70
2021/08/06 03:55:05;;;;;;;2.00;1.90;;;16.10;99.90;;;;;;6263185;28;20223;-71
2021/08/06 03:58:08;;;;;;;3.23;1.87;;;16.20;99.90;;;;;;6246550;28;20214;-71
2021/08/06 04:01:10;;;;;;;2.10;1.80;;;16.20;99.90;;;;;;6246441;28;20203;-71
2021/08/06 04:04:13;;;;;;;1.80;1.70;;;16.20;99.90;;;;;;6246400;28;20231;-72
2021/08/06 04:07:16;;;;;;;2.20;1.63;;;16.30;99.90;;;;;;6246292;28;20638;-70
2021/08/06 04:10:20;;;;;;;1.90;1.80;;;16.40;99.90;;;;;;6262935;28;20240;-70
2021/08/06 04:13:23;;;;;;;2.57;1.47;;;16.40;99.90;;;;;;6246210;28;20200;-71
2021/08/06 04:16:26;;;;;;;1.40;1.30;;;16.40;99.90;;;;;;6246199;28;20231;-70
2021/08/06 04:19:28;;;;;;;2.20;1.60;;;16.50;99.90;;;;;;6246209;28;20211;-72
2021/08/06 04:22:30;;;;;;;2.30;1.63;;;16.50;99.90;;;;;;6262676;28;20209;-70
2021/08/06 04:25:33;;;;;;;2.40;1.30;;;16.60;99.90;;;;;;6245931;28;20266;-70
2021/08/06 04:28:35;;;;;;;1.50;1.40;;;16.60;99.90;;;;;;6245942;28;20207;-69
2021/08/06 04:31:38;;;;;;;1.50;1.40;;;16.60;99.90;;;;;;6247283;28;20188;-70
2021/08/06 04:34:41;;;;;;;1.60;1.43;;;16.70;99.90;;;;;;6246738;28;20725;-69
2021/08/06 04:37:49;;;;;;;1.30;1.10;;;16.80;99.90;;;;;;6262279;28;20200;-69
2021/08/06 04:40:53;;;;;;;1.00;0.97;;;16.80;99.90;;;;;;6246979;28;20200;-70
2021/08/06 04:43:56;;;;;;;1.30;1.20;;;16.80;99.90;;;;;;6262140;28;20614;-70
2021/08/06 04:46:58;;;;;;;1.70;1.20;;;16.90;99.90;;;;;;6245352;28;20196;-69
2021/08/06 04:50:02;;;;;;;1.70;1.40;;;16.90;99.90;;;;;;6244305;28;20207;-70
2021/08/06 04:53:04;;;;;;;2.50;1.20;;;16.90;99.90;;;;;;6262007;28;20188;-70
2021/08/06 04:56:09;;;;;;;1.87;1.20;;;16.90;99.90;;;;;;6245120;28;20233;-69
2021/08/06 04:59:12;;;;;;;1.20;1.07;;;16.90;99.90;;;;;;6246570;28;20195;-70
2021/08/06 05:02:14;;;;;;;1.80;1.30;;;17.00;99.90;;;;;;6245271;28;20219;-71
2021/08/06 05:05:16;;;;;;;1.17;1.07;;;17.00;99.90;;;;;;6245148;28;20223;-72
2021/08/06 05:08:19;;;;;;;1.60;1.00;;;17.00;99.90;;;;;;6244907;28;20199;-69
2021/08/06 05:11:21;;;;;;;1.20;1.00;;;17.00;99.90;;;;;;6244752;28;20215;-71
2021/08/06 05:14:24;;;;;;;4.57;1.33;;;16.90;99.90;;;;;;6245831;28;20200;-69
2021/08/06 05:17:26;;;;;;;1.13;1.03;;;16.90;99.90;;;;;;6244642;28;20215;-69
2021/08/06 05:20:29;;;;;;;6.67;5.97;;;17.00;99.90;;;;;;6261022;28;20191;-67
2021/08/06 05:23:32;;;;;;;2.53;2.23;;;17.00;99.90;;;;;;6261094;28;20215;-71
2021/08/06 05:26:34;;;;;;;1.80;1.67;;;17.10;99.90;;;;;;6261064;28;20216;-70
2021/08/06 05:29:39;;;;;;;1.60;1.50;;;17.10;99.90;;;;;;6244438;28;20549;-69
2021/08/06 05:32:43;;;;;;;1.50;1.37;;;17.10;99.90;;;;;;6260943;28;20192;-71
2021/08/06 05:35:48;;;;;;;2.40;1.20;;;17.10;99.90;;;;;;6244126;28;20318;-69
2021/08/06 05:38:51;;;;;;;2.43;1.77;;;17.10;99.90;;;;;;6244479;28;20208;-68
2021/08/06 05:41:54;;;;;;;1.60;1.40;;;17.10;99.90;;;;;;6260895;28;20204;-68
2021/08/06 05:44:56;;;;;;;1.70;1.37;;;17.10;99.90;;;;;;6243950;28;20212;-69
2021/08/06 05:47:59;;;;;;;2.50;1.60;;;17.10;99.90;;;;;;6243861;28;20279;-69
2021/08/06 05:51:15;;;;;;;1.53;1.43;;;17.10;99.90;;;;;;6260603;28;20200;-69
2021/08/06 05:54:19;;;;;;;2.10;1.50;;;17.10;99.90;;;;;;6243929;28;20326;-69
2021/08/06 05:57:27;;;;;;;2.37;1.03;;;17.00;99.90;;;;;;6243859;28;20200;-70
2021/08/06 06:00:29;;;;;;;1.60;1.50;;;17.10;99.90;;;;;;6243627;28;20722;-69
2021/08/06 06:03:47;;;;;;;1.40;1.30;;;17.00;99.90;;;;;;6246020;28;20196;-70
2021/08/06 06:06:58;;;;;;;3.50;1.40;;;17.00;99.90;;;;;;6243728;28;20204;-71
2021/08/06 06:10:01;;;;;;;1.60;1.50;;;17.00;99.90;;;;;;6243586;28;20215;-71
2021/08/06 06:13:04;;;;;;;1.90;1.33;;;17.00;99.90;;;;;;6243752;28;20293;-70
2021/08/06 06:16:06;;;;;;;1.83;1.60;;;17.00;99.90;;;;;;6243078;28;20235;-70
2021/08/06 06:19:09;;;;;;;1.60;1.17;;;17.00;99.90;;;;;;6260166;28;20204;-69
2021/08/06 06:22:12;;;;;;;1.80;1.70;;;17.00;99.90;;;;;;6243740;28;20205;-70
2021/08/06 06:25:16;;;;;;;1.47;1.37;;;17.00;99.90;;;;;;6243415;28;20223;-69
2021/08/06 06:28:19;;;;;;;1.50;1.40;;;16.90;99.90;;;;;;6243573;28;20678;-69
2021/08/06 06:31:26;;;;;;;2.03;1.50;;;17.00;99.90;;;;;;6243279;28;20196;-70
2021/08/06 06:34:29;;;;;;;2.40;1.87;;;17.00;99.90;;;;;;6243224;28;20250;-70
2021/08/06 06:37:31;;;;;;;2.60;1.77;;;17.00;99.90;;;;;;6243247;28;20195;-70
2021/08/06 06:40:35;;;;;;;2.03;1.93;;;17.00;99.90;;;;;;6243359;28;20337;-70
2021/08/06 06:43:43;;;;;;;1.90;1.80;;;17.00;99.90;;;;;;6243355;28;20207;-70
2021/08/06 06:46:45;;;;;;;2.13;2.03;;;17.10;99.90;;;;;;6242895;28;20204;-70
2021/08/06 06:49:48;;;;;;;2.00;1.80;;;17.20;99.90;;;;;;6259744;28;20207;-70
2021/08/06 06:52:51;;;;;;;2.17;2.00;;;17.40;99.90;;;;;;6243349;28;20191;-69
2021/08/06 06:55:54;;;;;;;2.60;1.90;;;17.40;99.90;;;;;;6242908;28;20207;-69
2021/08/06 06:58:56;;;;;;;2.30;2.10;;;17.50;99.90;;;;;;6259772;28;20207;-69
2021/08/06 07:02:01;;;;;;;3.70;2.40;;;17.70;99.90;;;;;;6259238;28;20200;-71
2021/08/06 07:05:05;;;;;;;2.70;2.40;;;17.80;99.90;;;;;;6242782;28;20608;-70
2021/08/06 07:08:07;;;;;;;2.37;2.17;;;17.90;99.90;;;;;;6259178;28;20197;-70
2021/08/06 07:11:12;;;;;;;2.10;1.93;;;18.30;99.90;;;;;;6259222;28;20227;-69
2021/08/06 07:14:15;;;;;;;2.00;1.90;;;18.60;99.90;;;;;;6246545;28;20188;-70
2021/08/06 07:17:18;;;;;;;1.90;1.70;;;19.00;99.90;;;;;;6246992;28;20357;-73
2021/08/06 07:20:21;;;;;;;3.47;2.00;;;19.20;99.90;;;;;;6247284;28;20192;-70
2021/08/06 07:23:23;;;;;;;3.73;2.20;;;19.20;99.90;;;;;;6247121;28;20200;-69
2021/08/06 07:26:28;;;;;;;1.60;1.50;;;19.20;99.90;;;;;;6263542;28;20216;-69
2021/08/06 07:29:30;;;;;;;2.07;1.87;;;19.30;99.90;;;;;;6248494;28;20553;-69
2021/08/06 07:32:33;;;;;;;1.70;1.60;;;19.50;99.90;;;;;;6247028;28;20196;-70
2021/08/06 07:35:35;;;;;;;2.10;1.67;;;19.60;99.90;;;;;;6263528;28;20247;-68
2021/08/06 07:38:38;;;;;;;1.93;1.50;;;19.60;99.90;;;;;;6263839;28;20517;-68
2021/08/06 07:41:40;;;;;;;2.70;1.70;;;19.70;99.90;;;;;;6246798;28;20648;-68
2021/08/06 07:44:44;;;;;;;1.50;1.40;;;19.90;99.90;;;;;;6246576;28;20219;-69
2021/08/06 07:47:46;;;;;;;1.43;1.33;;;20.10;99.90;;;;;;6263076;28;20731;-69
2021/08/06 07:50:49;;;;;;;2.03;1.27;;;20.30;99.90;;;;;;6246984;28;20195;-70
2021/08/06 07:53:54;;;;;;;3.70;1.10;;;20.70;99.90;;;;;;6246613;28;20204;-68
2021/08/06 07:56:57;;;;;;;1.37;1.10;;;21.20;99.90;;;;;;6246985;28;20242;-69
2021/08/06 07:59:59;;;;;;;2.67;1.30;;;21.30;99.90;;;;;;6247445;28;20561;-69
2021/08/06 08:03:05;;;;;;;2.47;1.20;;;21.50;99.90;;;;;;6246608;28;20291;-72
2021/08/06 08:06:12;;;;;;;1.77;1.27;;;21.70;99.90;;;;;;6263229;28;20690;-70
2021/08/06 08:09:15;;;;;;;1.40;1.30;;;22.00;99.90;;;;;;6262768;28;20188;-71
2021/08/06 08:12:18;;;;;;;1.27;1.17;;;22.30;99.90;;;;;;6246300;28;20558;-69
2021/08/06 08:15:21;;;;;;;1.23;1.10;;;22.70;99.90;;;;;;6262237;28;20239;-71
2021/08/06 08:18:23;;;;;;;1.30;1.20;;;22.90;99.90;;;;;;6245729;28;20330;-69
2021/08/06 08:21:26;;;;;;;1.40;1.30;;;23.00;99.90;;;;;;6245799;28;20204;-69
2021/08/06 08:24:29;;;;;;;1.60;1.50;;;22.70;99.60;;;;;;6246761;28;20683;-69
2021/08/06 08:27:32;;;;;;;1.30;1.20;;;22.30;99.90;;;;;;6246976;28;20192;-69
2021/08/06 08:30:36;;;;;;;1.47;1.27;;;22.30;99.90;;;;;;6245834;28;20200;-69
2021/08/06 08:33:40;;;;;;;1.60;1.50;;;22.60;99.90;;;;;;6245714;28;20200;-69
2021/08/06 08:36:42;;;;;;;3.47;1.43;;;22.80;99.90;;;;;;6245704;28;20226;-69
2021/08/06 08:39:45;;;;;;;1.87;1.50;;;23.00;99.90;;;;;;6245562;28;20369;-69
2021/08/06 08:42:49;;;;;;;1.50;1.40;;;23.40;99.90;;;;;;6245508;28;20207;-68
2021/08/06 08:45:55;;;;;;;1.53;1.43;;;24.00;99.20;;;;;;6245034;28;20595;-69
2021/08/06 08:49:00;;;;;;;1.70;1.33;;;24.20;98.50;;;;;;6246754;28;20184;-68
2021/08/06 08:52:05;;;;;;;1.53;1.40;;;24.30;98.20;;;;;;6245270;28;20330;-68
2021/08/06 08:55:10;;;;;;;1.30;1.20;;;24.60;97.20;;;;;;6245052;28;20283;-68
2021/08/06 08:58:13;;;;;;;1.40;1.30;;;24.50;96.40;;;;;;6245303;28;20652;-69
2021/08/06 09:01:16;;;;;;;1.10;1.10;;;24.20;97.20;;;;;;6244827;28;20215;-70
2021/08/06 09:04:24;;;;;;;1.50;1.40;;;24.20;96.60;;;;;;6246660;28;20563;-69
2021/08/06 09:07:31;;;;;;;1.40;1.30;;;24.50;97.20;;;;;;6261277;28;20435;-68
2021/08/06 09:11:00;;;;;;;1.60;1.50;;;25.00;96.60;;;;;;6261665;28;20738;-72
2021/08/06 09:14:26;;;;;;;2.13;1.80;;;25.50;95.50;;;;;;6246173;28;20196;-70
2021/08/06 09:17:37;;;;;;;1.90;1.80;;;25.90;93.20;;;;;;6245836;28;20715;-68
2021/08/06 09:20:40;;;;;;;2.03;1.85;;;26.00;92.60;;;;;;6261330;28;20196;-67
2021/08/06 09:24:00;;;;;;;1.58;1.48;;;26.40;92.90;;;;;;6245814;28;20190;-69
2021/08/06 09:27:17;;;;;;;1.95;1.50;;;27.00;90.60;;;;;;6244281;28;20687;-70
2021/08/06 09:30:37;;;;;;;3.92;1.50;;;27.20;88.60;;;;;;6245656;28;20605;-72
2021/08/06 09:33:39;;;;;;;1.75;1.50;;;26.90;86.60;;;;;;6260979;28;20231;-70
2021/08/06 09:37:03;;;;;;;1.30;1.20;;;26.80;88.60;;;;;;6243812;28;20698;-69
2021/08/06 09:40:31;;;;;;;2.05;1.50;;;27.00;86.70;;;;;;6244155;28;20193;-69
2021/08/06 09:43:33;;;;;;;1.20;1.10;;;27.50;83.30;;;;;;6245466;28;20203;-67
2021/08/06 09:46:35;;;;;;;1.52;1.42;;;27.20;82.70;;;;;;6244104;28;20679;-69
2021/08/06 09:49:46;;;;;;;2.78;1.30;;;27.30;82.60;;;;;;6244220;28;20218;-68
2021/08/06 09:52:51;;;;;;;1.40;1.30;;;26.90;84.30;;;;;;6244427;28;20335;-69
2021/08/06 09:55:53;;;;;;;1.60;1.30;;;26.30;83.40;;;;;;6243744;28;20283;-68
2021/08/06 09:58:59;;;;;;;1.48;1.38;;;26.00;86.80;;;;;;6260081;28;20293;-68
2021/08/06 10:02:13;;;;;;;5.45;1.33;;;25.80;86.50;;;;;;6260354;28;20195;-68
2021/08/06 10:05:18;;;;;;;1.65;1.30;;;25.80;88.70;;;;;;6244961;28;20654;-69
2021/08/06 10:08:21;;;;;;;1.60;1.30;;;26.10;90.90;;;;;;6245181;28;20678;-69
2021/08/06 10:11:23;;;;;;;1.40;1.30;;;26.70;90.60;;;;;;6246404;28;20196;-70
2021/08/06 10:14:25;;;;;;;2.88;1.40;;;27.00;89.50;;;;;;6244055;28;20199;-69
2021/08/06 10:17:29;;;;;;;1.40;1.30;;;27.40;89.10;;;;;;6259827;28;20251;-67
2021/08/06 10:20:33;;;;;;;1.48;1.23;;;27.70;84.90;;;;;;6244934;28;20203;-69
2021/08/06 10:23:35;;;;;;;1.88;1.45;;;27.80;81.10;;;;;;6243730;28;20212;-69
2021/08/06 10:26:41;;;;;;;1.90;1.25;;;27.50;80.60;;;;;;6243509;28;20302;-70
2021/08/06 10:30:03;;;;;;;1.42;1.33;;;27.70;80.90;;;;;;6244633;28;20454;-68
2021/08/06 10:33:20;;;;;;;1.30;1.20;;;27.70;79.00;;;;;;6260326;28;20695;-68
2021/08/06 10:36:40;;;;;;;3.47;1.35;;;27.80;81.40;;;;;;6244590;28;20221;-68
2021/08/06 10:39:43;;;;;;;2.45;1.60;;;27.90;74.60;;;;;;6244644;28;20196;-69
2021/08/06 10:42:45;;;;;;;1.33;1.23;;;27.80;75.90;;;;;;6244653;28;20250;-68
2021/08/06 10:45:48;;;;;;;1.73;1.10;;;27.40;76.60;;;;;;6260192;28;20212;-67
2021/08/06 10:48:53;;;;;;;0.90;0.90;;;27.40;75.00;;;;;;6249385;28;20614;-69
2021/08/06 10:52:17;;;;;;;2.03;1.08;;;27.40;75.60;;;;;;6248165;28;20682;-69
2021/08/06 10:55:20;;;;;;;2.47;1.15;;;27.70;74.60;;;;;;6248048;28;20624;-69
2021/08/06 10:58:49;;;;;;;1.70;1.15;;;27.80;75.30;;;;;;6248678;28;20192;-68
2021/08/06 11:01:51;;;;;;;1.30;1.00;;;28.10;71.80;;;;;;6247872;28;20208;-68
2021/08/06 11:04:54;;;;;;;1.23;1.00;;;28.60;73.80;;;;;;6248093;28;20536;-69
2021/08/06 11:08:45;;;;;;;1.05;1.02;;;29.00;73.30;;;;;;6248161;28;20165;-69
2021/08/06 11:11:49;;;;;;;0.90;0.90;;;29.00;65.50;;;;;;6249263;28;20212;-68
2021/08/06 11:14:51;;;;;;;1.90;0.73;;;28.70;67.10;;;;;;6264102;28;20224;-67
2021/08/06 11:17:54;;;;;;;1.10;1.00;;;28.90;68.70;;;;;;6248834;28;20238;-68
2021/08/06 11:20:56;;;;;;;2.72;0.93;;;29.10;68.20;;;;;;6239230;28;20199;-67
2021/08/06 11:24:00;;;;;;;1.02;0.90;;;29.40;58.60;;;;;;6238460;28;20220;-66
2021/08/06 11:27:03;;;;;;;2.03;0.95;;;29.20;58.90;;;;;;6248296;28;20216;-67
2021/08/06 11:30:14;;;;;;;1.10;1.00;;;29.60;63.00;;;;;;6247465;28;20189;-67
2021/08/06 11:33:17;;;;;;;0.93;0.93;;;29.90;61.40;;;;;;6248855;28;20185;-68
2021/08/06 11:36:21;;;;;;;1.92;1.00;;;30.20;59.30;;;;;;6247191;28;20702;-68
2021/08/06 11:39:23;;;;;;;1.08;0.70;;;30.00;57.20;;;;;;6247238;28;20192;-69
2021/08/06 11:42:26;;;;;;;1.08;0.80;;;30.20;58.70;;;;;;6247291;28;20200;-68
2021/08/06 11:45:29;;;;;;;1.20;1.10;;;30.60;56.30;;;;;;6246948;28;20212;-67
2021/08/06 11:48:50;;;;;;;1.52;1.00;;;31.00;56.60;;;;;;6248221;28;20277;-67
2021/08/06 11:51:54;;;;;;;2.40;0.90;;;30.80;58.40;;;;;;6246934;28;20199;-68
2021/08/06 11:54:57;;;;;;;0.88;0.80;;;30.70;59.50;;;;;;6248161;28;20191;-68
2021/08/06 11:57:59;;;;;;;2.13;1.27;;;30.60;58.70;;;;;;6246458;28;20207;-69
2021/08/06 12:01:02;;;;;;;2.03;1.00;;;30.00;57.20;;;;;;6263295;28;20197;-67
2021/08/06 12:04:05;;;;;;;0.85;0.85;;;29.30;57.10;;;;;;6246641;28;20315;-69
2021/08/06 12:07:08;;;;;;;0.80;0.80;;;29.50;59.60;;;;;;6247916;28;20211;-68
2021/08/06 12:10:10;;;;;;;1.95;1.10;;;30.00;57.90;;;;;;6248315;28;20184;-68
2021/08/06 12:13:20;;;;;;;5.07;1.33;;;30.30;57.20;;;;;;6247514;28;20755;-67
2021/08/06 12:16:37;;;;;;;1.05;1.05;;;30.20;57.40;;;;;;6247528;28;20298;-69
2021/08/06 12:19:46;;;;;;;1.30;0.93;;;29.30;58.30;;;;;;6245736;28;20543;-69
2021/08/06 12:22:52;;;;;;;1.55;1.20;;;29.10;59.70;;;;;;6245837;28;20191;-70
2021/08/06 12:26:10;;;;;;;0.88;0.88;;;28.80;59.70;;;;;;6245402;28;20215;-70
2021/08/06 12:29:19;;;;;;;1.17;1.10;;;28.30;61.10;;;;;;6244372;28;20536;-70
2021/08/06 12:32:31;;;;;;;1.58;1.20;;;27.70;63.40;;;;;;6246430;28;20214;-67
2021/08/06 12:35:34;;;;;;;1.23;1.13;;;27.90;63.70;;;;;;6247050;28;20577;-67
2021/08/06 12:38:36;;;;;;;1.70;1.40;;;27.50;64.00;;;;;;6245899;28;20196;-68
2021/08/06 12:41:40;;;;;;;1.20;1.10;;;27.00;66.30;;;;;;6245977;28;20699;-68
2021/08/06 12:45:00;;;;;;;1.33;1.13;;;26.80;66.90;;;;;;6248209;28;20836;-69
2021/08/06 12:48:05;;;;;;;1.20;1.10;;;26.50;68.30;;;;;;6246924;28;20215;-68
2021/08/06 12:51:18;;;;;;;1.35;1.25;;;26.30;70.40;;;;;;6244658;28;20204;-68
2021/08/06 12:54:56;;;;;;;1.40;1.20;;;26.40;71.30;;;;;;6246014;28;20563;-70
2021/08/06 12:58:02;;;;;;;1.60;1.25;;;26.50;71.80;;;;;;6226261;28;20200;-67
2021/08/06 13:01:05;;;;;;;1.35;1.25;;;26.50;71.40;;;;;;6243034;28;20672;-68
2021/08/06 13:04:07;;;;;;;2.15;1.30;;;26.80;72.20;;;;;;6243425;28;20188;-67
2021/08/06 13:07:26;;;;;;;1.67;1.33;;;27.30;69.50;;;;;;6224014;28;20212;-68
2021/08/06 13:10:30;;;;;;;1.55;1.35;;;27.90;67.40;;;;;;6238083;28;20192;-68
2021/08/06 13:13:42;;;;;;;1.50;1.40;;;28.40;65.80;;;;;;6238079;28;20196;-68
2021/08/06 13:16:44;;;;;;;1.50;1.40;;;28.90;63.70;;;;;;6241297;28;20252;-68
2021/08/06 13:19:47;;;;;;;1.13;1.00;;;29.10;63.20;;;;;;6241108;28;20541;-67
2021/08/06 13:22:50;;;;;;;1.27;1.15;;;29.70;62.90;;;;;;6241383;28;20207;-66
2021/08/06 13:25:53;;;;;;;1.00;1.00;;;30.20;61.60;;;;;;6240935;28;20236;-69
2021/08/06 13:28:55;;;;;;;1.10;1.10;;;30.40;60.80;;;;;;6223448;28;20314;-67
2021/08/06 13:31:59;;;;;;;1.40;1.30;;;30.40;59.70;;;;;;6218627;28;20207;-67
2021/08/06 13:35:02;;;;;;;1.55;1.30;;;30.30;59.60;;;;;;6260772;28;20230;-68
2021/08/06 13:38:05;;;;;;;2.10;2.00;;;30.10;59.20;;;;;;6244091;28;20732;-68
2021/08/06 13:41:07;;;;;;;1.40;1.30;;;30.20;59.80;;;;;;6245569;28;20203;-67
2021/08/06 13:44:09;;;;;;;2.00;1.10;;;30.50;60.40;;;;;;6245524;28;20214;-68
2021/08/06 13:47:12;;;;;;;1.25;0.98;;;30.70;56.40;;;;;;6244953;28;20204;-68
2021/08/06 13:50:15;;;;;;;1.58;1.30;;;31.30;55.70;;;;;;6245871;28;20533;-69
2021/08/06 13:53:17;;;;;;;1.20;1.10;;;31.80;54.00;;;;;;6244098;28;20547;-68
2021/08/06 13:56:20;;;;;;;1.67;1.10;;;32.20;52.90;;;;;;6245399;28;20778;-68
2021/08/06 13:59:24;;;;;;;1.40;1.00;;;32.30;50.90;;;;;;6243741;28;20282;-70
2021/08/06 14:02:26;;;;;;;1.23;1.00;;;32.10;50.80;;;;;;6245032;28;20278;-70
2021/08/06 14:05:29;;;;;;;0.80;0.80;;;32.30;50.90;;;;;;6243750;28;20562;-69
2021/08/06 14:08:31;;;;;;;1.40;1.08;;;33.00;48.20;;;;;;6244932;28;20207;-69
2021/08/06 14:11:34;;;;;;;1.30;0.80;;;33.30;48.50;;;;;;6244973;28;20274;-70
2021/08/06 14:14:36;;;;;;;1.80;1.02;;;33.70;48.60;;;;;;6260513;28;20200;-69
2021/08/06 14:17:40;;;;;;;0.80;0.80;;;34.50;47.70;;;;;;6243789;28;20200;-69
2021/08/06 14:20:42;;;;;;;0.70;0.70;;;34.70;46.40;;;;;;6245583;28;20559;-70
2021/08/06 14:23:45;;;;;;;1.13;1.00;;;34.90;47.00;;;;;;6253080;28;20198;-69
2021/08/06 14:26:48;;;;;;;0.82;0.82;;;35.40;46.50;;;;;;6251640;28;20568;-69
2021/08/06 14:29:52;;;;;;;3.53;0.82;;;35.30;46.00;;;;;;6251297;28;20191;-69
2021/08/06 14:32:54;;;;;;;1.60;0.90;;;35.50;44.80;;;;;;6253087;28;20215;-68
2021/08/06 14:35:56;;;;;;;1.35;0.80;;;35.60;43.90;;;;;;6253556;28;20235;-70
2021/08/06 14:39:01;;;;;;;2.58;0.73;;;35.60;44.30;;;;;;6253256;28;20184;-69
2021/08/06 14:42:03;;;;;;;0.77;0.60;;;35.50;43.10;;;;;;6253152;28;20558;-71
2021/08/06 14:45:06;;;;;;;1.08;0.73;;;35.80;43.50;;;;;;6253016;28;20334;-70
2021/08/06 14:48:08;;;;;;;1.48;0.70;;;35.90;42.70;;;;;;6252833;28;20226;-70
2021/08/06 14:51:15;;;;;;;1.10;0.93;;;36.30;42.90;;;;;;6251873;28;20210;-68
2021/08/06 14:54:17;;;;;;;1.10;1.00;;;36.60;42.50;;;;;;6252020;28;20555;-68
2021/08/06 14:57:20;;;;;;;0.98;0.88;;;36.10;40.90;;;;;;6268222;28;20203;-69
2021/08/06 15:00:22;;;;;;;3.17;0.98;;;36.10;42.70;;;;;;6251230;28;20281;-69
2021/08/06 15:03:24;;;;;;;2.35;1.00;;;36.50;42.60;;;;;;6251163;28;20537;-68
2021/08/06 15:06:27;;;;;;;1.48;0.90;;;36.60;42.00;;;;;;6252522;28;20208;-69
2021/08/06 15:09:29;;;;;;;0.60;0.60;;;36.80;42.20;;;;;;6252599;28;20184;-69
2021/08/06 15:12:31;;;;;;;0.80;0.80;;;37.20;41.50;;;;;;6267786;28;20333;-69
2021/08/06 15:15:37;;;;;;;1.70;1.15;;;37.60;40.40;;;;;;6250843;28;20262;-69
2021/08/06 15:18:40;;;;;;;2.20;1.20;;;37.90;40.50;;;;;;6252434;28;20200;-70
2021/08/06 15:21:43;;;;;;;0.80;0.80;;;37.90;39.50;;;;;;6252446;28;20266;-69
2021/08/06 15:24:48;;;;;;;1.27;1.08;;;37.50;39.80;;;;;;6250943;28;20215;-68
2021/08/06 15:27:51;;;;;;;1.90;0.90;;;37.60;40.60;;;;;;6252006;28;20204;-68
2021/08/06 15:30:54;;;;;;;0.80;0.80;;;37.90;39.60;;;;;;6252422;28;20593;-69
2021/08/06 15:33:59;;;;;;;0.80;0.80;;;38.10;39.30;;;;;;6248435;28;20266;-68
2021/08/06 15:37:04;;;;;;;1.45;0.90;;;38.30;40.30;;;;;;6247725;28;20318;-68
2021/08/06 15:40:09;;;;;;;1.40;1.30;;;38.50;39.70;;;;;;6247273;28;20199;-69
2021/08/06 15:43:11;;;;;;;2.03;1.05;;;38.50;39.10;;;;;;6248274;28;20197;-69
2021/08/06 15:46:14;;;;;;;1.95;0.98;;;37.90;38.70;;;;;;6246842;28;20568;-69
2021/08/06 15:49:16;;;;;;;1.17;0.93;;;37.40;38.90;;;;;;6248388;28;20195;-69
2021/08/06 15:52:19;;;;;;;1.42;0.90;;;37.40;39.40;;;;;;6248278;28;20687;-69
2021/08/06 15:55:22;;;;;;;1.60;1.40;;;37.50;39.80;;;;;;6248589;28;20626;-71
2021/08/06 15:58:24;;;;;;;2.50;1.35;;;37.30;40.20;;;;;;6247813;28;20651;-70
2021/08/06 16:01:26;;;;;;;2.00;1.80;;;37.20;39.60;;;;;;6263367;28;20196;-69
2021/08/06 16:04:29;;;;;;;1.00;1.00;;;37.30;40.00;;;;;;6263315;28;20204;-69
2021/08/06 16:07:31;;;;;;;4.35;1.92;;;36.70;39.40;;;;;;6247704;28;20230;-69